Time;durP1;ratioP1;P1;durP2;ratioP2;P2;SDS_P1;SDS_P2;PMS_P1;PMS_P2;Temp;Humidity;BMP_temperature;BMP_pressure;BME280_temperature;BME280_humidity;BME280_pressure;Samples;Min_cycle;Max_cycle;Signal;HPM_P1;HPM_P2
2023/07/11 00:01:16;;;;;;;13.98;9.07;;;;;;;22.18;56.51;95682.69;5114277;27;20035;-80
2023/07/11 00:03:41;;;;;;;16.15;9.60;;;;;;;22.15;56.84;95672.53;5112570;27;20460;-80
2023/07/11 00:06:12;;;;;;;14.68;9.27;;;;;;;21.93;56.75;95645.91;5131727;27;20035;-81
2023/07/11 00:08:37;;;;;;;18.63;9.95;;;;;;;22.05;56.87;95670.25;5122336;27;20042;-80
2023/07/11 00:11:09;;;;;;;21.48;10.10;;;;;;;22.09;56.60;95663.09;5139120;27;20023;-80
2023/07/11 00:13:35;;;;;;;19.42;9.23;;;;;;;22.15;56.86;95674.44;5131425;27;20031;-81
2023/07/11 00:16:10;;;;;;;16.02;8.75;;;;;;;22.18;56.87;95690.78;5113282;27;20114;-81
2023/07/11 00:18:36;;;;;;;20.45;9.48;;;;;;;21.93;57.02;95662.91;5096299;27;20030;-80
2023/07/11 00:21:03;;;;;;;18.88;10.13;;;;;;;21.89;57.14;95663.91;5131373;27;20040;-80
2023/07/11 00:23:29;;;;;;;18.17;10.13;;;;;;;21.85;57.40;95658.38;5132060;27;20027;-80
2023/07/11 00:25:54;;;;;;;18.92;9.05;;;;;;;22.02;57.50;95689.06;5109779;28;20050;-80
2023/07/11 00:28:20;;;;;;;17.27;9.35;;;;;;;21.60;57.78;95628.94;5121299;27;20370;-80
2023/07/11 00:30:49;;;;;;;16.48;8.88;;;;;;;21.91;58.02;95685.94;5130284;27;20035;-80
2023/07/11 00:33:15;;;;;;;22.73;10.05;;;;;;;21.63;58.23;95644.47;5112196;28;20469;-80
2023/07/11 00:35:44;;;;;;;19.80;9.23;;;;;;;21.83;58.41;95676.03;5109577;28;20027;-81
2023/07/11 00:38:10;;;;;;;19.95;10.43;;;;;;;21.74;58.25;95662.59;5103485;28;20035;-81
2023/07/11 00:40:43;;;;;;;17.23;9.93;;;;;;;21.58;58.16;95647.38;5111905;27;20394;-81
2023/07/11 00:43:14;;;;;;;18.63;9.23;;;;;;;21.75;58.66;95674.19;5137700;27;20410;-81
2023/07/11 00:45:49;;;;;;;19.15;9.35;;;;;;;21.76;58.56;95676.56;5138892;27;20412;-81
2023/07/11 00:48:18;;;;;;;17.83;9.32;;;;;;;21.35;58.38;95631.56;5120068;27;20035;-81
2023/07/11 00:50:44;;;;;;;16.27;9.27;;;;;;;21.56;58.67;95661.19;5113521;27;20111;-81
2023/07/11 00:53:11;;;;;;;21.77;10.43;;;;;;;21.27;59.34;95628.91;5136062;27;20458;-81
2023/07/11 00:55:37;;;;;;;17.02;10.27;;;;;;;21.50;59.20;95655.22;5138416;27;20030;-81
2023/07/11 00:58:03;;;;;;;14.35;8.88;;;;;;;21.22;59.38;95608.31;5120235;27;20043;-81
2023/07/11 01:00:29;;;;;;;22.13;10.23;;;;;;;21.40;59.43;95650.22;5137709;27;20039;-81
2023/07/11 01:02:54;;;;;;;18.80;9.43;;;;;;;21.45;59.22;95655.41;5131041;27;20027;-81
2023/07/11 01:05:20;;;;;;;13.00;9.50;;;;;;;21.32;59.25;95629.50;5138274;27;20031;-82
2023/07/11 01:07:45;;;;;;;22.33;9.57;;;;;;;21.37;58.74;95644.69;5115046;27;20478;-81
2023/07/11 01:10:11;;;;;;;17.48;9.88;;;;;;;21.44;58.76;95653.03;5130420;27;20043;-81
2023/07/11 01:12:42;;;;;;;17.73;9.55;;;;;;;21.56;58.66;95666.59;5118286;27;20048;-81
2023/07/11 01:15:08;;;;;;;17.88;10.32;;;;;;;21.49;58.61;95655.56;5119715;27;20039;-80
2023/07/11 01:17:35;;;;;;;19.20;10.48;;;;;;;21.61;58.66;95665.59;5129626;27;20394;-80
2023/07/11 01:20:04;;;;;;;21.15;9.30;;;;;;;21.60;58.56;95658.63;5123989;27;20413;-80
2023/07/11 01:22:32;;;;;;;15.10;9.35;;;;;;;21.09;59.42;95637.09;5118884;27;20039;-80
2023/07/11 01:25:04;;;;;;;22.70;9.70;;;;;;;21.31;59.10;95654.91;5119465;27;20118;-80
2023/07/11 01:27:29;;;;;;;18.50;8.88;;;;;;;21.10;59.44;95625.22;5138561;27;20035;-78
2023/07/11 01:29:54;;;;;;;14.52;8.93;;;;;;;21.26;59.10;95638.13;5120079;27;20045;-78
2023/07/11 01:32:20;;;;;;;14.82;8.93;;;;;;;21.29;58.86;95646.34;5120187;27;20031;-78
2023/07/11 01:34:46;;;;;;;16.50;8.98;;;;;;;21.07;58.88;95611.59;5120349;27;20027;-79
2023/07/11 01:37:12;;;;;;;15.13;8.88;;;;;;;21.36;59.11;95660.09;5140067;27;20090;-79
2023/07/11 01:39:37;;;;;;;14.25;9.02;;;;;;;20.94;59.06;95591.88;5121134;27;20023;-79
2023/07/11 01:42:03;;;;;;;10.55;8.57;;;;;;;21.16;59.16;95631.19;5121069;27;20574;-78
2023/07/11 01:44:30;;;;;;;17.17;8.90;;;;;;;21.04;58.99;95614.94;5120757;27;20035;-79
2023/07/11 01:46:55;;;;;;;14.10;8.50;;;;;;;21.11;58.94;95634.09;5139444;27;20079;-78
2023/07/11 01:49:21;;;;;;;17.20;8.70;;;;;;;21.14;59.13;95652.28;5120955;27;20529;-78
2023/07/11 01:51:47;;;;;;;16.15;7.97;;;;;;;21.16;59.23;95650.06;5118840;27;20129;-79
2023/07/11 01:54:13;;;;;;;10.80;7.80;;;;;;;20.29;58.98;95514.31;5117006;27;20504;-79
2023/07/11 01:56:39;;;;;;;12.85;8.40;;;;;;;20.27;58.99;95509.25;5116619;27;20036;-78
2023/07/11 01:59:04;;;;;;;14.90;8.35;;;;;;;20.49;58.88;95553.19;5117181;27;20039;-79
2023/07/11 02:01:30;;;;;;;15.93;7.85;;;;;;;20.66;58.73;95588.09;5116670;27;20497;-79
2023/07/11 02:03:55;;;;;;;18.55;8.30;;;;;;;20.83;58.58;95612.22;5116932;27;20561;-78
2023/07/11 02:06:21;;;;;;;12.38;8.32;;;;;;;20.84;58.46;95621.09;5116855;27;20027;-78
2023/07/11 02:08:46;;;;;;;16.17;8.00;;;;;;;21.08;58.50;95651.72;5117260;27;20035;-79
2023/07/11 02:11:12;;;;;;;16.70;8.05;;;;;;;20.71;58.50;95586.00;5109831;28;20067;-79
2023/07/11 02:13:40;;;;;;;20.63;8.63;;;;;;;21.08;58.42;95637.44;5115467;27;20035;-79
2023/07/11 02:16:06;;;;;;;15.23;7.88;;;;;;;21.01;58.76;95645.25;5118336;27;20027;-78
2023/07/11 02:18:31;;;;;;;17.02;8.05;;;;;;;20.79;58.65;95614.00;5135479;27;20125;-78
2023/07/11 02:20:57;;;;;;;17.08;8.70;;;;;;;21.08;58.89;95659.00;5116260;27;20043;-79
2023/07/11 02:23:23;;;;;;;13.57;8.10;;;;;;;20.91;58.75;95624.06;5135160;27;20110;-79
2023/07/11 02:25:52;;;;;;;14.43;8.43;;;;;;;20.87;58.69;95618.56;5116577;27;20099;-79
2023/07/11 02:28:17;;;;;;;15.95;8.75;;;;;;;20.93;58.68;95628.03;5116922;27;20061;-79
2023/07/11 02:30:43;;;;;;;15.18;7.75;;;;;;;20.93;58.61;95628.03;5134727;27;20476;-79
2023/07/11 02:33:08;;;;;;;14.80;7.90;;;;;;;21.12;58.74;95654.56;5115988;27;20031;-78
2023/07/11 02:35:34;;;;;;;19.10;7.90;;;;;;;21.12;58.91;95654.56;5116109;27;20035;-79
2023/07/11 02:38:00;;;;;;;19.45;9.32;;;;;;;20.97;58.86;95638.97;5116505;27;20126;-79
2023/07/11 02:40:26;;;;;;;15.45;8.15;;;;;;;20.98;58.57;95637.84;5116592;27;20095;-78
2023/07/11 02:42:51;;;;;;;17.40;8.32;;;;;;;20.77;58.92;95611.63;5135398;27;20060;-78
2023/07/11 02:45:16;;;;;;;14.23;8.18;;;;;;;20.91;59.02;95632.94;5115664;27;20058;-79
2023/07/11 02:47:42;;;;;;;13.25;8.18;;;;;;;20.90;59.24;95638.69;5134963;27;20191;-79
2023/07/11 02:50:08;;;;;;;18.48;9.43;;;;;;;20.84;59.45;95629.97;5115941;27;20047;-78
2023/07/11 02:52:34;;;;;;;12.93;8.02;;;;;;;20.90;59.59;95641.38;5134686;27;20035;-78
2023/07/11 02:55:00;;;;;;;16.38;8.93;;;;;;;20.88;59.70;95646.31;5116052;27;20031;-79
2023/07/11 02:57:25;;;;;;;15.32;7.90;;;;;;;20.61;59.83;95615.22;5116085;27;20143;-79
2023/07/11 02:59:51;;;;;;;15.30;7.90;;;;;;;20.62;59.90;95620.28;5115851;27;20509;-79
2023/07/11 03:02:16;;;;;;;12.80;8.15;;;;;;;20.80;60.10;95662.22;5132631;27;20027;-79
2023/07/11 03:04:42;;;;;;;18.27;8.40;;;;;;;20.82;59.96;95659.19;5115613;27;20019;-79
2023/07/11 03:07:07;;;;;;;14.45;8.63;;;;;;;20.64;60.05;95626.16;5099073;27;20031;-79
2023/07/11 03:09:34;;;;;;;17.85;8.73;;;;;;;20.63;60.27;95642.66;5134373;27;20031;-79
2023/07/11 03:12:00;;;;;;;14.18;8.52;;;;;;;20.45;60.21;95616.91;5115693;27;20031;-78
2023/07/11 03:14:26;;;;;;;20.30;9.13;;;;;;;20.51;60.23;95629.09;5133857;27;20470;-79
2023/07/11 03:16:52;;;;;;;15.13;8.02;;;;;;;20.58;60.14;95642.84;5115174;27;20083;-78
2023/07/11 03:19:20;;;;;;;17.30;8.43;;;;;;;20.23;60.18;95585.59;5115414;27;20071;-79
2023/07/11 03:21:45;;;;;;;17.08;8.73;;;;;;;20.68;59.94;95664.81;5133905;27;20076;-79
2023/07/11 03:24:10;;;;;;;14.48;9.35;;;;;;;20.56;59.67;95635.06;5115647;27;20031;-78
2023/07/11 03:26:36;;;;;;;18.63;9.18;;;;;;;20.68;58.91;95645.94;5133437;27;20023;-79
2023/07/11 03:29:02;;;;;;;17.10;8.82;;;;;;;20.84;58.82;95664.22;5134285;27;20034;-78
2023/07/11 03:31:27;;;;;;;20.33;8.68;;;;;;;20.65;58.84;95637.72;5115477;27;20031;-79
2023/07/11 03:33:53;;;;;;;27.15;8.93;;;;;;;20.54;59.00;95617.66;5115502;27;20420;-79
2023/07/11 03:36:20;;;;;;;16.17;8.85;;;;;;;20.73;58.58;95650.38;5134201;27;20068;-78
2023/07/11 03:38:46;;;;;;;19.67;8.38;;;;;;;20.55;58.34;95632.69;5134050;27;20304;-78
2023/07/11 03:41:12;;;;;;;17.75;7.82;;;;;;;20.73;58.46;95650.38;5115181;27;20039;-79
2023/07/11 03:43:37;;;;;;;28.23;9.20;;;;;;;20.52;58.26;95642.22;5133739;27;20413;-79
2023/07/11 03:46:03;;;;;;;15.75;8.50;;;;;;;20.34;58.13;95622.66;5115663;27;20039;-78
2023/07/11 03:48:29;;;;;;;15.65;7.80;;;;;;;20.67;57.64;95652.44;5115064;27;20053;-78
2023/07/11 03:50:55;;;;;;;14.40;7.95;;;;;;;20.62;58.02;95627.59;5114862;27;20473;-79
2023/07/11 03:53:20;;;;;;;17.55;7.43;;;;;;;20.83;57.86;95659.97;5115057;27;20112;-78
2023/07/11 03:55:46;;;;;;;19.40;8.30;;;;;;;20.79;57.64;95655.25;5114996;27;20038;-78
2023/07/11 03:58:12;;;;;;;19.48;8.32;;;;;;;20.68;57.51;95635.16;5115114;27;20070;-79
2023/07/11 04:00:37;;;;;;;17.67;7.63;;;;;;;20.52;57.56;95603.72;5133852;27;20402;-78
2023/07/11 04:03:03;;;;;;;12.95;8.25;;;;;;;20.60;57.63;95617.13;5133748;27;20031;-79
2023/07/11 04:05:29;;;;;;;19.25;7.97;;;;;;;20.34;57.74;95576.09;5133340;27;20087;-78
2023/07/11 04:07:55;;;;;;;14.15;8.18;;;;;;;20.58;57.98;95607.81;5114716;27;20027;-79
2023/07/11 04:10:21;;;;;;;10.02;7.63;;;;;;;20.74;57.86;95641.16;5133696;27;20035;-78
2023/07/11 04:12:46;;;;;;;12.65;7.32;;;;;;;20.97;57.74;95664.00;5133858;27;20088;-78
2023/07/11 04:15:13;;;;;;;11.80;7.90;;;;;;;20.81;57.23;95633.34;5113599;27;20533;-78
2023/07/11 04:17:39;;;;;;;19.77;8.50;;;;;;;21.03;56.50;95667.31;5133851;27;20038;-79
2023/07/11 04:20:06;;;;;;;11.55;7.32;;;;;;;21.06;56.18;95675.50;5133585;27;20035;-79
2023/07/11 04:22:31;;;;;;;21.60;8.30;;;;;;;20.84;55.97;95650.75;5112815;27;20492;-78
2023/07/11 04:24:56;;;;;;;13.45;8.27;;;;;;;20.98;55.98;95656.72;5126041;27;20034;-78
2023/07/11 04:27:23;;;;;;;23.55;9.77;;;;;;;20.99;55.74;95656.38;5114291;28;20095;-79
2023/07/11 04:29:49;;;;;;;16.38;8.98;;;;;;;21.09;55.60;95671.38;5133029;27;20047;-79
2023/07/11 04:32:14;;;;;;;22.02;9.25;;;;;;;20.99;55.58;95655.56;5114442;27;20405;-78
2023/07/11 04:34:40;;;;;;;19.98;10.05;;;;;;;21.14;55.34;95660.38;5133066;27;20364;-79
2023/07/11 04:37:06;;;;;;;22.48;9.93;;;;;;;21.31;55.18;95681.88;5133070;27;20030;-78
2023/07/11 04:39:32;;;;;;;21.73;9.93;;;;;;;21.33;55.23;95685.03;5133377;28;20114;-79
2023/07/11 04:41:57;;;;;;;20.80;9.77;;;;;;;21.29;55.39;95675.22;5127012;28;20043;-78
2023/07/11 04:44:24;;;;;;;15.70;9.52;;;;;;;21.19;55.29;95646.75;5100028;28;20133;-79
2023/07/11 04:46:49;;;;;;;23.08;9.65;;;;;;;21.47;55.33;95687.47;5114144;28;20084;-79
2023/07/11 04:49:15;;;;;;;24.90;11.00;;;;;;;21.14;55.53;95663.09;5113947;28;20023;-78
2023/07/11 04:51:40;;;;;;;24.77;10.70;;;;;;;21.43;55.11;95700.06;5112098;28;20038;-79
2023/07/11 04:54:06;;;;;;;19.65;10.40;;;;;;;21.48;54.71;95695.22;5126825;28;20035;-79
2023/07/11 04:56:31;;;;;;;28.95;10.98;;;;;;;21.32;54.84;95667.28;5114701;28;20394;-79
2023/07/11 04:58:59;;;;;;;27.05;11.35;;;;;;;21.29;54.93;95661.72;5129092;28;20039;-79
2023/07/11 05:01:24;;;;;;;21.73;11.43;;;;;;;21.40;55.16;95690.69;5132242;28;20031;-79
2023/07/11 05:03:50;;;;;;;23.08;10.90;;;;;;;21.59;55.03;95701.00;5125720;28;20088;-79
2023/07/11 05:06:15;;;;;;;23.33;10.70;;;;;;;21.38;54.85;95660.56;5119215;28;20027;-78
2023/07/11 05:08:41;;;;;;;24.13;10.15;;;;;;;21.68;54.89;95706.34;5113478;28;20039;-81
2023/07/11 05:11:13;;;;;;;19.70;10.40;;;;;;;21.54;54.69;95668.84;5108594;28;20504;-80
2023/07/11 05:13:38;;;;;;;16.58;10.05;;;;;;;21.65;54.82;95683.50;5111755;28;20027;-80
2023/07/11 05:16:07;;;;;;;23.58;10.85;;;;;;;21.74;54.71;95696.94;5121845;28;20421;-80
2023/07/11 05:18:34;;;;;;;21.63;10.50;;;;;;;21.45;54.28;95657.31;5131178;28;20475;-80
2023/07/11 05:21:00;;;;;;;22.13;9.57;;;;;;;21.51;54.31;95651.38;5107257;28;20534;-80
2023/07/11 05:23:28;;;;;;;17.42;9.32;;;;;;;21.62;54.38;95665.28;5126169;27;20546;-80
2023/07/11 05:25:54;;;;;;;24.52;10.40;;;;;;;21.86;54.51;95694.25;5167299;27;20416;-80
2023/07/11 05:28:21;;;;;;;19.65;10.38;;;;;;;21.62;54.10;95659.06;5139884;27;20046;-80
2023/07/11 05:30:46;;;;;;;26.65;10.90;;;;;;;21.80;54.00;95682.91;5115629;27;20067;-80
2023/07/11 05:33:12;;;;;;;17.50;10.85;;;;;;;21.73;54.04;95666.44;5115220;27;20031;-80
2023/07/11 05:38:35;;;;;;;22.02;10.95;;;;;;;21.79;53.75;95675.13;5100697;27;20047;-80
2023/07/11 05:41:00;;;;;;;32.20;10.80;;;;;;;21.65;54.07;95677.31;5133816;27;20175;-81
2023/07/11 05:43:27;;;;;;;26.88;10.13;;;;;;;21.62;53.64;95645.59;5131855;27;20191;-80
2023/07/11 05:45:52;;;;;;;20.00;9.55;;;;;;;21.83;53.49;95676.03;5128337;27;20098;-80
2023/07/11 05:48:17;;;;;;;13.27;8.63;;;;;;;21.98;53.23;95707.81;5127550;27;20440;-80
2023/07/11 05:50:43;;;;;;;14.52;9.10;;;;;;;21.79;53.23;95670.50;5114163;27;20531;-80
2023/07/11 05:53:08;;;;;;;17.90;10.23;;;;;;;22.08;52.84;95693.13;5131113;27;20032;-80
2023/07/11 05:55:34;;;;;;;17.30;9.82;;;;;;;21.86;53.35;95659.16;5121011;27;20133;-80
2023/07/11 05:57:59;;;;;;;19.30;10.38;;;;;;;22.13;53.04;95688.28;5114455;27;20042;-81
2023/07/11 06:00:25;;;;;;;17.40;11.10;;;;;;;22.10;53.05;95669.28;5133030;27;20098;-80
2023/07/11 06:02:50;;;;;;;19.48;10.15;;;;;;;22.08;52.88;95649.91;5124612;27;20480;-80
2023/07/11 06:05:16;;;;;;;18.40;10.93;;;;;;;22.04;52.89;95639.00;5132211;27;20023;-80
2023/07/11 06:07:43;;;;;;;21.20;11.50;;;;;;;22.32;53.19;95683.16;5133399;27;20115;-81
2023/07/11 06:10:09;;;;;;;20.92;10.93;;;;;;;22.48;52.69;95701.41;5133300;27;20457;-81
2023/07/11 06:12:34;;;;;;;15.38;11.18;;;;;;;22.37;52.93;95670.53;5133490;27;20019;-81
2023/07/11 06:15:00;;;;;;;17.23;10.40;;;;;;;22.44;53.63;95679.66;5115556;27;20501;-81
2023/07/11 06:17:27;;;;;;;21.55;10.35;;;;;;;22.29;53.93;95659.50;5115047;27;20511;-80
2023/07/11 06:19:53;;;;;;;20.33;9.27;;;;;;;22.58;54.31;95693.66;5117385;27;20097;-81
2023/07/11 06:22:18;;;;;;;25.02;12.10;;;;;;;22.43;53.77;95663.81;5125245;27;20051;-81
2023/07/11 06:24:44;;;;;;;19.70;11.38;;;;;;;22.48;52.87;95674.41;5133713;27;20039;-81
2023/07/11 06:27:10;;;;;;;29.20;11.32;;;;;;;22.42;53.25;95657.63;5134041;27;20032;-81
2023/07/11 06:29:36;;;;;;;21.00;10.15;;;;;;;22.55;53.64;95674.63;5133533;27;20037;-81
2023/07/11 06:32:01;;;;;;;24.85;11.00;;;;;;;22.58;53.50;95674.72;5132033;27;20062;-81
2023/07/11 06:34:27;;;;;;;20.13;10.77;;;;;;;22.52;53.37;95653.66;5125649;27;20031;-81
2023/07/11 06:36:52;;;;;;;19.52;10.88;;;;;;;22.73;52.95;95664.38;5115132;27;20256;-82
2023/07/11 06:39:18;;;;;;;23.13;10.52;;;;;;;22.61;53.00;95655.13;5121887;27;20188;-83
2023/07/11 06:41:43;;;;;;;31.80;11.88;;;;;;;22.84;52.66;95687.94;5134226;27;20046;-81
2023/07/11 06:44:08;;;;;;;30.02;11.90;;;;;;;22.72;53.00;95671.69;5133942;27;20035;-81
2023/07/11 06:46:35;;;;;;;20.15;11.05;;;;;;;22.99;53.03;95695.38;5134347;27;20031;-81
2023/07/11 06:49:01;;;;;;;25.85;11.38;;;;;;;22.80;52.48;95643.00;5118248;27;20110;-81
2023/07/11 06:51:28;;;;;;;21.05;10.60;;;;;;;22.94;52.49;95668.56;5114611;27;20394;-81
2023/07/11 06:53:55;;;;;;;19.15;9.90;;;;;;;22.52;52.49;95583.38;5119851;27;20027;-81
2023/07/11 06:56:21;;;;;;;19.88;10.60;;;;;;;23.23;52.25;95688.34;5127976;27;20084;-81
2023/07/11 06:58:47;;;;;;;23.67;10.27;;;;;;;23.06;52.20;95652.28;5133729;27;20031;-81
2023/07/11 07:01:14;;;;;;;17.13;10.35;;;;;;;23.05;52.20;95642.59;5127501;27;20035;-81
2023/07/11 07:03:40;;;;;;;20.67;11.00;;;;;;;23.16;51.94;95653.75;5114654;27;20027;-81
2023/07/11 07:06:09;;;;;;;27.10;11.68;;;;;;;23.31;51.82;95668.47;5114575;27;20084;-80
2023/07/11 07:08:34;;;;;;;21.75;10.63;;;;;;;23.23;51.77;95662.06;5122143;27;20051;-81
2023/07/11 07:11:00;;;;;;;20.42;10.60;;;;;;;23.50;51.13;95679.50;5114658;27;20035;-81
2023/07/11 07:13:26;;;;;;;23.27;10.00;;;;;;;23.09;51.53;95602.16;5114471;27;20039;-80
2023/07/11 07:15:57;;;;;;;31.05;10.82;;;;;;;23.66;51.63;95680.34;5112909;27;20195;-81
2023/07/11 07:18:23;;;;;;;25.02;10.63;;;;;;;23.51;51.67;95643.19;5111740;27;20164;-80
2023/07/11 07:20:51;;;;;;;25.02;11.25;;;;;;;23.68;52.03;95666.47;5131068;27;20058;-80
2023/07/11 07:23:17;;;;;;;18.25;10.65;;;;;;;23.06;51.45;95570.34;5130631;27;20027;-80
2023/07/11 07:25:50;;;;;;;24.17;11.80;;;;;;;23.68;51.08;95663.75;5131240;27;20031;-80
2023/07/11 07:28:15;;;;;;;18.98;10.82;;;;;;;23.79;51.21;95662.16;5113460;27;20035;-80
2023/07/11 07:30:46;;;;;;;24.65;11.32;;;;;;;23.91;51.53;95669.41;5109094;28;20051;-80
2023/07/11 07:33:11;;;;;;;27.08;11.25;;;;;;;23.57;51.71;95631.00;5123463;27;20465;-80
2023/07/11 07:35:37;;;;;;;21.65;10.85;;;;;;;23.67;51.81;95626.97;5130907;27;20031;-80
2023/07/11 07:38:03;;;;;;;20.77;10.25;;;;;;;23.83;51.16;95649.47;5125631;27;20038;-80
2023/07/11 07:40:29;;;;;;;23.63;10.90;;;;;;;23.66;51.13;95634.31;5132262;27;20023;-80
2023/07/11 07:42:54;;;;;;;25.95;11.30;;;;;;;24.05;51.20;95667.06;5131434;27;20510;-80
2023/07/11 07:45:20;;;;;;;29.27;11.45;;;;;;;24.04;50.62;95662.78;5108304;27;20027;-80
2023/07/11 07:47:45;;;;;;;16.67;10.18;;;;;;;23.93;50.73;95631.94;5117702;27;20039;-80
2023/07/11 07:50:11;;;;;;;23.08;11.05;;;;;;;24.15;51.03;95661.94;5120807;27;20140;-80
2023/07/11 07:52:36;;;;;;;28.42;11.50;;;;;;;23.99;50.86;95635.97;5131088;27;20023;-80
2023/07/11 07:55:02;;;;;;;18.15;9.93;;;;;;;24.20;50.47;95652.78;5120059;27;20035;-80
2023/07/11 07:57:27;;;;;;;23.05;11.23;;;;;;;24.18;51.43;95663.19;5132437;27;20490;-80
2023/07/11 07:59:53;;;;;;;19.48;10.98;;;;;;;24.02;50.75;95605.47;5132162;27;20035;-80
2023/07/11 08:02:18;;;;;;;28.98;11.57;;;;;;;24.23;51.19;95641.25;5131799;27;20156;-80
2023/07/11 08:04:46;;;;;;;24.52;11.45;;;;;;;24.46;50.42;95657.69;5131805;27;20133;-80
2023/07/11 08:07:11;;;;;;;19.30;11.25;;;;;;;24.27;51.07;95623.16;5132083;27;20034;-80
2023/07/11 08:09:36;;;;;;;29.00;11.65;;;;;;;24.58;51.35;95649.47;5129728;27;20023;-80
2023/07/11 08:12:06;;;;;;;25.40;10.40;;;;;;;24.37;50.67;95625.34;5113436;27;20028;-80
2023/07/11 08:14:35;;;;;;;20.42;10.55;;;;;;;24.63;49.84;95635.66;5109987;27;20555;-80
2023/07/11 08:17:00;;;;;;;30.02;10.65;;;;;;;24.76;49.84;95639.84;5099543;27;20023;-80
2023/07/11 08:19:26;;;;;;;19.45;9.38;;;;;;;24.46;50.15;95601.56;5131080;27;20507;-80
2023/07/11 08:21:52;;;;;;;24.58;9.85;;;;;;;24.69;49.45;95617.19;5124203;27;20051;-80
2023/07/11 08:24:17;;;;;;;26.00;9.52;;;;;;;24.84;50.86;95628.00;5112325;27;20123;-80
2023/07/11 08:26:43;;;;;;;20.48;9.23;;;;;;;24.78;49.59;95624.00;5130972;27;20067;-80
2023/07/11 08:29:08;;;;;;;18.98;9.18;;;;;;;24.74;49.51;95587.84;5120823;27;20030;-80
2023/07/11 08:31:33;;;;;;;24.40;9.90;;;;;;;25.04;50.03;95628.06;5112285;27;20042;-80
2023/07/11 08:33:59;;;;;;;25.25;9.30;;;;;;;25.22;48.54;95638.16;5112164;27;20031;-80
2023/07/11 08:36:24;;;;;;;19.58;8.40;;;;;;;25.06;48.49;95628.50;5112187;28;20489;-80
2023/07/11 08:38:50;;;;;;;15.32;7.80;;;;;;;24.92;48.45;95566.59;5112371;28;20035;-80
2023/07/11 08:41:52;;;;;;;19.15;8.73;;;;;;;25.33;49.02;95631.03;5114057;28;20384;-80
2023/07/11 08:44:30;;;;;;;18.45;6.72;;;;;;;24.94;46.92;95592.22;5079920;28;20039;-80
2023/07/11 08:47:23;;;;;;;13.63;7.32;;;;;;;25.24;47.68;95619.59;5127728;27;20054;-80
2023/07/11 08:50:11;;;;;;;13.68;6.88;;;;;;;25.31;45.96;95622.47;5112289;28;20038;-80
2023/07/11 08:52:36;;;;;;;16.58;6.57;;;;;;;25.31;46.82;95611.59;5111431;28;20039;-80
2023/07/11 08:55:16;;;;;;;11.20;6.47;;;;;;;25.50;45.30;95635.25;5126291;28;20087;-80
2023/07/11 08:57:53;;;;;;;10.50;7.35;;;;;;;25.40;45.76;95613.31;5109788;28;20028;-80
2023/07/11 09:00:19;;;;;;;23.02;7.15;;;;;;;25.60;45.67;95628.50;5112435;28;20076;-80
2023/07/11 09:03:00;;;;;;;9.98;6.53;;;;;;;25.73;45.70;95638.84;5117743;27;20031;-80
2023/07/11 09:05:32;;;;;;;12.73;6.90;;;;;;;25.82;45.72;95625.03;5133161;27;20079;-80
2023/07/11 09:07:58;;;;;;;10.38;6.18;;;;;;;25.56;45.45;95562.41;5134750;27;20034;-80
2023/07/11 09:10:32;;;;;;;9.05;6.65;;;;;;;26.11;46.44;95629.84;5134997;27;20043;-80
2023/07/11 09:13:04;;;;;;;14.13;7.00;;;;;;;26.11;44.92;95640.72;5115524;27;20031;-80
2023/07/11 09:15:55;;;;;;;14.10;7.13;;;;;;;26.10;44.78;95617.38;5134505;27;20039;-80
2023/07/11 09:18:36;;;;;;;16.52;6.90;;;;;;;26.10;45.03;95603.00;5094059;27;20134;-80
2023/07/11 09:21:14;;;;;;;11.23;6.47;;;;;;;26.37;43.45;95620.22;5118762;27;20133;-81
2023/07/11 09:24:04;;;;;;;13.40;6.40;;;;;;;26.40;42.95;95619.47;5133552;27;20775;-80
2023/07/11 09:26:34;;;;;;;16.23;6.53;;;;;;;26.35;43.69;95609.69;5134351;27;20035;-80
2023/07/11 09:29:06;;;;;;;10.60;6.22;;;;;;;26.26;42.54;95586.59;5128193;27;20030;-80
2023/07/11 09:31:41;;;;;;;9.38;5.82;;;;;;;26.46;42.90;95629.69;5134436;27;20378;-80
2023/07/11 09:34:27;;;;;;;12.10;6.28;;;;;;;26.59;42.40;95605.78;5133957;27;20036;-80
2023/07/11 09:36:56;;;;;;;8.82;5.45;;;;;;;26.55;42.67;95602.22;5098355;27;20441;-80
2023/07/11 09:39:33;;;;;;;11.27;6.07;;;;;;;26.71;42.62;95608.31;5133227;27;20031;-80
2023/07/11 09:42:13;;;;;;;11.70;6.65;;;;;;;26.66;41.98;95595.03;5134540;27;20035;-80
2023/07/11 09:44:38;;;;;;;11.05;6.13;;;;;;;26.68;41.79;95595.44;5134612;27;20038;-81
2023/07/11 09:47:17;;;;;;;14.05;6.10;;;;;;;26.87;42.32;95611.66;5132124;27;20043;-80
2023/07/11 09:49:44;;;;;;;9.48;5.88;;;;;;;26.89;41.73;95554.13;5121413;27;20031;-80
2023/07/11 09:52:21;;;;;;;8.30;6.20;;;;;;;27.88;40.85;95600.88;5134223;27;20039;-81
2023/07/11 09:54:47;;;;;;;9.30;5.72;;;;;;;28.73;39.15;95582.53;5133706;27;20035;-81
2023/07/11 09:57:13;;;;;;;9.93;5.55;;;;;;;29.60;36.82;95599.03;5132030;27;20275;-81
2023/07/11 09:59:43;;;;;;;11.63;5.75;;;;;;;30.03;36.46;95610.91;5133769;27;20046;-81
2023/07/11 10:02:15;;;;;;;6.72;5.10;;;;;;;30.41;34.88;95582.00;5115000;27;20027;-81
2023/07/11 10:04:41;;;;;;;13.02;6.15;;;;;;;30.93;34.61;95588.63;5127139;27;20520;-81
2023/07/11 10:07:13;;;;;;;14.05;5.93;;;;;;;30.62;33.61;95497.97;5114375;27;20042;-81
2023/07/11 10:09:45;;;;;;;9.52;5.30;;;;;;;30.77;34.05;95530.78;5133225;27;20114;-81
2023/07/11 10:12:18;;;;;;;10.82;5.10;;;;;;;30.39;34.19;95584.34;5132014;27;20027;-81
2023/07/11 10:14:48;;;;;;;8.73;5.40;;;;;;;31.21;32.74;95577.63;5132922;27;20050;-81
2023/07/11 10:17:20;;;;;;;10.98;5.05;;;;;;;31.53;32.57;95590.41;5120271;27;20406;-81
2023/07/11 10:19:53;;;;;;;6.05;4.50;;;;;;;32.33;31.47;95571.97;5131734;27;20417;-81
2023/07/11 10:22:26;;;;;;;8.70;5.82;;;;;;;32.51;32.50;95583.56;5130687;27;20055;-81
2023/07/11 10:24:59;;;;;;;8.45;5.45;;;;;;;32.53;31.53;95561.22;5127911;27;20429;-81
2023/07/11 10:27:31;;;;;;;11.40;5.65;;;;;;;32.65;31.27;95530.53;5127795;27;20031;-81
2023/07/11 10:30:03;;;;;;;10.30;6.13;;;;;;;32.42;32.22;95542.09;5135215;27;20062;-81
2023/07/11 10:32:42;;;;;;;11.40;5.43;;;;;;;32.41;32.27;95589.16;5135633;27;20023;-81
2023/07/11 10:35:14;;;;;;;10.55;5.10;;;;;;;32.33;32.36;95576.69;5131796;27;20073;-81
2023/07/11 10:37:45;;;;;;;7.78;5.13;;;;;;;32.12;32.53;95583.06;5120504;27;20386;-81
2023/07/11 10:40:23;;;;;;;6.45;5.00;;;;;;;32.45;31.99;95584.41;5146739;27;20050;-81
2023/07/11 10:42:56;;;;;;;8.05;5.40;;;;;;;32.72;31.91;95568.94;5117392;27;20065;-81
2023/07/11 10:45:26;;;;;;;8.48;5.38;;;;;;;32.76;31.60;95558.66;5129916;27;20042;-81
2023/07/11 10:48:13;;;;;;;10.20;5.03;;;;;;;32.22;32.00;95584.19;5131476;27;20047;-81
2023/07/11 10:50:55;;;;;;;7.60;4.80;;;;;;;31.87;31.85;95502.91;5133805;27;20041;-80
2023/07/11 10:53:25;;;;;;;10.68;4.93;;;;;;;31.93;31.06;95491.13;5153190;27;20125;-81
2023/07/11 10:56:12;;;;;;;14.77;5.47;;;;;;;32.37;31.92;95566.44;5134545;27;20126;-81
2023/07/11 10:58:38;;;;;;;7.88;4.82;;;;;;;32.11;30.95;95571.31;5152715;27;20099;-80
2023/07/11 11:01:18;;;;;;;8.63;4.85;;;;;;;32.29;31.35;95518.28;5133733;27;20496;-81
2023/07/11 11:03:46;;;;;;;8.38;4.82;;;;;;;32.17;30.39;95501.16;5133232;27;20043;-80
2023/07/11 11:06:29;;;;;;;7.65;4.78;;;;;;;32.32;30.30;95536.69;5134091;27;20034;-80
2023/07/11 11:09:20;;;;;;;7.65;5.20;;;;;;;32.94;29.57;95547.50;5152504;27;20454;-80
2023/07/11 11:12:15;;;;;;;10.82;4.93;;;;;;;32.33;30.18;95473.19;5148442;27;20138;-81
2023/07/11 11:14:57;;;;;;;5.90;4.57;;;;;;;32.67;30.78;95552.84;5150419;27;20188;-80
2023/07/11 11:17:47;;;;;;;14.50;5.25;;;;;;;33.06;30.83;95543.44;5134706;27;20548;-81
2023/07/11 11:20:25;;;;;;;7.93;4.68;;;;;;;33.00;30.07;95543.13;5146790;27;20064;-81
2023/07/11 11:23:02;;;;;;;7.68;4.88;;;;;;;32.87;30.68;95553.88;5110595;27;20031;-81
2023/07/11 11:25:40;;;;;;;10.18;5.53;;;;;;;33.06;30.39;95518.72;5090819;28;20048;-81
2023/07/11 11:28:26;;;;;;;10.40;4.95;;;;;;;33.55;30.48;95540.13;5105400;28;20103;-80
2023/07/11 11:31:09;;;;;;;12.40;5.22;;;;;;;33.03;29.21;95569.00;5101944;28;20059;-80
2023/07/11 11:33:42;;;;;;;7.25;4.88;;;;;;;32.78;30.05;95536.28;5111608;27;20495;-81